sensor_id;sensor_type;location;lat;lon;timestamp;P1;durP1;ratioP1;P2;durP2;ratioP2
28756;SDS011;44294;48.282;14.282;2022-12-07T00:02:23;30.07;;;17.03;;
28756;SDS011;44294;48.282;14.282;2022-12-07T00:05:10;23.40;;;13.93;;
28756;SDS011;44294;48.282;14.282;2022-12-07T00:07:58;20.80;;;12.17;;
28756;SDS011;44294;48.282;14.282;2022-12-07T00:10:45;22.07;;;12.83;;
28756;SDS011;44294;48.282;14.282;2022-12-07T00:13:33;21.17;;;12.97;;
28756;SDS011;44294;48.282;14.282;2022-12-07T00:16:21;21.27;;;12.47;;
28756;SDS011;44294;48.282;14.282;2022-12-07T00:19:10;23.40;;;12.97;;
28756;SDS011;44294;48.282;14.282;2022-12-07T00:21:58;20.27;;;12.13;;
28756;SDS011;44294;48.282;14.282;2022-12-07T00:24:45;20.83;;;12.43;;
28756;SDS011;44294;48.282;14.282;2022-12-07T00:27:33;19.63;;;11.57;;
28756;SDS011;44294;48.282;14.282;2022-12-07T00:30:20;17.40;;;11.00;;
28756;SDS011;44294;48.282;14.282;2022-12-07T00:33:07;21.07;;;11.33;;
28756;SDS011;44294;48.282;14.282;2022-12-07T00:35:55;17.90;;;10.57;;
28756;SDS011;44294;48.282;14.282;2022-12-07T00:38:43;20.83;;;11.90;;
28756;SDS011;44294;48.282;14.282;2022-12-07T00:41:30;16.67;;;10.53;;
28756;SDS011;44294;48.282;14.282;2022-12-07T00:44:18;19.10;;;11.30;;
28756;SDS011;44294;48.282;14.282;2022-12-07T00:47:05;19.63;;;11.77;;
28756;SDS011;44294;48.282;14.282;2022-12-07T00:49:52;17.93;;;10.40;;
28756;SDS011;44294;48.282;14.282;2022-12-07T00:52:40;17.77;;;10.67;;
28756;SDS011;44294;48.282;14.282;2022-12-07T00:55:27;15.87;;;9.83;;
28756;SDS011;44294;48.282;14.282;2022-12-07T00:58:14;19.17;;;10.80;;
28756;SDS011;44294;48.282;14.282;2022-12-07T01:01:02;18.03;;;9.97;;
28756;SDS011;44294;48.282;14.282;2022-12-07T01:03:50;19.33;;;10.73;;
28756;SDS011;44294;48.282;14.282;2022-12-07T01:06:38;19.80;;;11.37;;
28756;SDS011;44294;48.282;14.282;2022-12-07T01:09:25;17.73;;;10.20;;
28756;SDS011;44294;48.282;14.282;2022-12-07T01:12:12;17.03;;;10.00;;
28756;SDS011;44294;48.282;14.282;2022-12-07T01:15:00;19.70;;;11.27;;
28756;SDS011;44294;48.282;14.282;2022-12-07T01:17:47;14.80;;;9.30;;
28756;SDS011;44294;48.282;14.282;2022-12-07T01:20:34;16.13;;;9.83;;
28756;SDS011;44294;48.282;14.282;2022-12-07T01:23:22;15.30;;;9.90;;
28756;SDS011;44294;48.282;14.282;2022-12-07T01:26:10;15.30;;;9.80;;
28756;SDS011;44294;48.282;14.282;2022-12-07T01:28:58;17.77;;;10.07;;
28756;SDS011;44294;48.282;14.282;2022-12-07T01:31:48;18.17;;;9.83;;
28756;SDS011;44294;48.282;14.282;2022-12-07T01:34:35;14.77;;;8.93;;
28756;SDS011;44294;48.282;14.282;2022-12-07T01:37:23;15.13;;;9.20;;
28756;SDS011;44294;48.282;14.282;2022-12-07T01:40:10;16.00;;;9.40;;
28756;SDS011;44294;48.282;14.282;2022-12-07T01:42:58;15.77;;;9.33;;
28756;SDS011;44294;48.282;14.282;2022-12-07T01:45:45;18.60;;;9.77;;
28756;SDS011;44294;48.282;14.282;2022-12-07T01:48:40;15.70;;;9.70;;
28756;SDS011;44294;48.282;14.282;2022-12-07T01:51:27;16.77;;;9.80;;
28756;SDS011;44294;48.282;14.282;2022-12-07T01:54:15;14.77;;;9.13;;
28756;SDS011;44294;48.282;14.282;2022-12-07T01:57:03;15.53;;;9.13;;
28756;SDS011;44294;48.282;14.282;2022-12-07T01:59:51;13.33;;;8.53;;
28756;SDS011;44294;48.282;14.282;2022-12-07T02:02:44;13.53;;;8.40;;
28756;SDS011;44294;48.282;14.282;2022-12-07T02:05:31;13.63;;;8.77;;
28756;SDS011;44294;48.282;14.282;2022-12-07T02:08:19;13.67;;;8.63;;
28756;SDS011;44294;48.282;14.282;2022-12-07T02:11:06;14.57;;;9.00;;
28756;SDS011;44294;48.282;14.282;2022-12-07T02:13:54;14.30;;;9.17;;
28756;SDS011;44294;48.282;14.282;2022-12-07T02:22:58;13.30;;;8.80;;
28756;SDS011;44294;48.282;14.282;2022-12-07T02:25:45;12.17;;;8.40;;
28756;SDS011;44294;48.282;14.282;2022-12-07T02:31:18;11.50;;;7.90;;
28756;SDS011;44294;48.282;14.282;2022-12-07T02:34:11;13.90;;;8.47;;
28756;SDS011;44294;48.282;14.282;2022-12-07T02:37:00;12.93;;;8.30;;
28756;SDS011;44294;48.282;14.282;2022-12-07T02:39:48;12.60;;;8.43;;
28756;SDS011;44294;48.282;14.282;2022-12-07T02:42:41;13.03;;;8.50;;
28756;SDS011;44294;48.282;14.282;2022-12-07T02:45:27;12.90;;;8.67;;
28756;SDS011;44294;48.282;14.282;2022-12-07T02:48:16;12.97;;;8.47;;
28756;SDS011;44294;48.282;14.282;2022-12-07T02:51:04;11.70;;;7.97;;
28756;SDS011;44294;48.282;14.282;2022-12-07T02:53:51;12.43;;;8.13;;
28756;SDS011;44294;48.282;14.282;2022-12-07T02:56:41;12.40;;;8.30;;
28756;SDS011;44294;48.282;14.282;2022-12-07T03:05:27;11.90;;;7.97;;
28756;SDS011;44294;48.282;14.282;2022-12-07T03:08:28;11.67;;;7.37;;
28756;SDS011;44294;48.282;14.282;2022-12-07T03:14:06;10.80;;;7.30;;
28756;SDS011;44294;48.282;14.282;2022-12-07T03:16:54;10.93;;;7.30;;
28756;SDS011;44294;48.282;14.282;2022-12-07T03:19:39;11.40;;;6.67;;
28756;SDS011;44294;48.282;14.282;2022-12-07T03:22:28;9.93;;;7.03;;
28756;SDS011;44294;48.282;14.282;2022-12-07T03:25:16;9.57;;;6.70;;
28756;SDS011;44294;48.282;14.282;2022-12-07T03:28:05;10.47;;;7.17;;
28756;SDS011;44294;48.282;14.282;2022-12-07T03:30:55;9.40;;;6.53;;
28756;SDS011;44294;48.282;14.282;2022-12-07T03:33:47;9.47;;;6.63;;
28756;SDS011;44294;48.282;14.282;2022-12-07T03:42:12;10.27;;;6.93;;
28756;SDS011;44294;48.282;14.282;2022-12-07T03:45:00;11.63;;;7.10;;
28756;SDS011;44294;48.282;14.282;2022-12-07T03:47:54;9.27;;;6.73;;
28756;SDS011;44294;48.282;14.282;2022-12-07T03:50:42;9.90;;;6.43;;
28756;SDS011;44294;48.282;14.282;2022-12-07T03:53:30;8.97;;;6.30;;
28756;SDS011;44294;48.282;14.282;2022-12-07T03:56:18;9.13;;;6.57;;
28756;SDS011;44294;48.282;14.282;2022-12-07T03:59:05;8.40;;;6.00;;
28756;SDS011;44294;48.282;14.282;2022-12-07T04:01:57;9.27;;;6.33;;
28756;SDS011;44294;48.282;14.282;2022-12-07T04:04:45;9.93;;;6.63;;
28756;SDS011;44294;48.282;14.282;2022-12-07T04:07:32;12.60;;;6.73;;
28756;SDS011;44294;48.282;14.282;2022-12-07T04:10:20;10.37;;;6.83;;
28756;SDS011;44294;48.282;14.282;2022-12-07T04:13:07;10.27;;;6.63;;
28756;SDS011;44294;48.282;14.282;2022-12-07T04:15:54;8.97;;;6.27;;
28756;SDS011;44294;48.282;14.282;2022-12-07T04:18:42;9.23;;;6.87;;
28756;SDS011;44294;48.282;14.282;2022-12-07T04:21:29;9.03;;;6.57;;
28756;SDS011;44294;48.282;14.282;2022-12-07T04:24:16;10.37;;;7.27;;
28756;SDS011;44294;48.282;14.282;2022-12-07T04:27:04;9.20;;;6.50;;
28756;SDS011;44294;48.282;14.282;2022-12-07T04:29:51;9.07;;;6.70;;
28756;SDS011;44294;48.282;14.282;2022-12-07T04:32:38;11.23;;;7.43;;
28756;SDS011;44294;48.282;14.282;2022-12-07T04:35:26;10.03;;;6.97;;
28756;SDS011;44294;48.282;14.282;2022-12-07T04:38:13;12.97;;;7.40;;
28756;SDS011;44294;48.282;14.282;2022-12-07T04:41:07;10.47;;;7.00;;
28756;SDS011;44294;48.282;14.282;2022-12-07T04:44:00;11.37;;;7.30;;
28756;SDS011;44294;48.282;14.282;2022-12-07T04:46:44;11.93;;;8.40;;
28756;SDS011;44294;48.282;14.282;2022-12-07T04:49:31;13.00;;;8.13;;
28756;SDS011;44294;48.282;14.282;2022-12-07T04:52:18;11.20;;;7.10;;
28756;SDS011;44294;48.282;14.282;2022-12-07T04:55:06;9.47;;;6.93;;
28756;SDS011;44294;48.282;14.282;2022-12-07T04:57:53;11.20;;;7.50;;
28756;SDS011;44294;48.282;14.282;2022-12-07T05:00:41;14.10;;;7.87;;
28756;SDS011;44294;48.282;14.282;2022-12-07T05:03:28;10.57;;;7.13;;
28756;SDS011;44294;48.282;14.282;2022-12-07T05:06:15;10.60;;;6.93;;
28756;SDS011;44294;48.282;14.282;2022-12-07T05:09:03;9.60;;;6.90;;
28756;SDS011;44294;48.282;14.282;2022-12-07T05:11:50;10.63;;;7.20;;
28756;SDS011;44294;48.282;14.282;2022-12-07T05:14:38;10.60;;;7.30;;
28756;SDS011;44294;48.282;14.282;2022-12-07T05:17:25;10.10;;;7.00;;
28756;SDS011;44294;48.282;14.282;2022-12-07T05:20:12;10.07;;;7.00;;
28756;SDS011;44294;48.282;14.282;2022-12-07T05:23:00;14.30;;;7.70;;
28756;SDS011;44294;48.282;14.282;2022-12-07T05:25:47;12.20;;;7.50;;
28756;SDS011;44294;48.282;14.282;2022-12-07T05:28:35;10.73;;;7.63;;
28756;SDS011;44294;48.282;14.282;2022-12-07T05:31:23;10.07;;;6.90;;
28756;SDS011;44294;48.282;14.282;2022-12-07T05:34:10;9.57;;;7.10;;
28756;SDS011;44294;48.282;14.282;2022-12-07T05:36:58;9.17;;;6.70;;
28756;SDS011;44294;48.282;14.282;2022-12-07T05:39:45;10.33;;;7.33;;
28756;SDS011;44294;48.282;14.282;2022-12-07T05:42:33;10.27;;;6.90;;
28756;SDS011;44294;48.282;14.282;2022-12-07T05:45:20;9.00;;;6.53;;
28756;SDS011;44294;48.282;14.282;2022-12-07T05:48:07;9.80;;;6.63;;
28756;SDS011;44294;48.282;14.282;2022-12-07T05:50:55;11.70;;;7.83;;
28756;SDS011;44294;48.282;14.282;2022-12-07T05:53:42;12.97;;;8.37;;
28756;SDS011;44294;48.282;14.282;2022-12-07T05:56:29;11.17;;;7.40;;
28756;SDS011;44294;48.282;14.282;2022-12-07T05:59:17;13.83;;;8.03;;
28756;SDS011;44294;48.282;14.282;2022-12-07T06:02:11;11.63;;;7.80;;
28756;SDS011;44294;48.282;14.282;2022-12-07T06:04:59;12.30;;;8.10;;
28756;SDS011;44294;48.282;14.282;2022-12-07T06:07:46;12.63;;;8.33;;
28756;SDS011;44294;48.282;14.282;2022-12-07T06:10:33;11.80;;;8.20;;
28756;SDS011;44294;48.282;14.282;2022-12-07T06:13:21;12.87;;;8.13;;
28756;SDS011;44294;48.282;14.282;2022-12-07T06:16:08;11.67;;;8.03;;
28756;SDS011;44294;48.282;14.282;2022-12-07T06:18:55;11.23;;;7.73;;
28756;SDS011;44294;48.282;14.282;2022-12-07T06:21:43;11.57;;;7.83;;
28756;SDS011;44294;48.282;14.282;2022-12-07T06:24:31;10.90;;;7.50;;
28756;SDS011;44294;48.282;14.282;2022-12-07T06:27:18;12.10;;;8.60;;
28756;SDS011;44294;48.282;14.282;2022-12-07T06:30:06;11.63;;;7.93;;
28756;SDS011;44294;48.282;14.282;2022-12-07T06:32:54;11.77;;;7.67;;
28756;SDS011;44294;48.282;14.282;2022-12-07T06:35:42;13.73;;;8.57;;
28756;SDS011;44294;48.282;14.282;2022-12-07T06:38:29;11.80;;;7.93;;
28756;SDS011;44294;48.282;14.282;2022-12-07T06:41:16;13.10;;;8.47;;
28756;SDS011;44294;48.282;14.282;2022-12-07T06:44:04;12.67;;;7.90;;
28756;SDS011;44294;48.282;14.282;2022-12-07T06:46:52;12.70;;;8.50;;
28756;SDS011;44294;48.282;14.282;2022-12-07T06:49:39;14.43;;;9.20;;
28756;SDS011;44294;48.282;14.282;2022-12-07T06:52:27;12.07;;;8.37;;
28756;SDS011;44294;48.282;14.282;2022-12-07T06:55:14;13.37;;;8.33;;
28756;SDS011;44294;48.282;14.282;2022-12-07T06:58:01;14.00;;;8.60;;
28756;SDS011;44294;48.282;14.282;2022-12-07T07:00:49;12.00;;;7.93;;
28756;SDS011;44294;48.282;14.282;2022-12-07T07:03:36;13.53;;;8.60;;
28756;SDS011;44294;48.282;14.282;2022-12-07T07:06:24;14.13;;;8.87;;
28756;SDS011;44294;48.282;14.282;2022-12-07T07:09:11;17.33;;;10.60;;
28756;SDS011;44294;48.282;14.282;2022-12-07T07:11:58;60.73;;;32.87;;
28756;SDS011;44294;48.282;14.282;2022-12-07T07:14:45;23.10;;;13.73;;
28756;SDS011;44294;48.282;14.282;2022-12-07T07:17:33;17.40;;;10.83;;
28756;SDS011;44294;48.282;14.282;2022-12-07T07:20:20;15.97;;;9.73;;
28756;SDS011;44294;48.282;14.282;2022-12-07T07:23:08;15.37;;;10.03;;
28756;SDS011;44294;48.282;14.282;2022-12-07T07:25:55;34.67;;;19.77;;
28756;SDS011;44294;48.282;14.282;2022-12-07T07:28:43;17.33;;;11.20;;
28756;SDS011;44294;48.282;14.282;2022-12-07T07:31:30;13.93;;;9.17;;
28756;SDS011;44294;48.282;14.282;2022-12-07T07:34:18;12.67;;;8.67;;
28756;SDS011;44294;48.282;14.282;2022-12-07T07:37:05;14.10;;;8.97;;
28756;SDS011;44294;48.282;14.282;2022-12-07T07:39:52;12.90;;;8.60;;
28756;SDS011;44294;48.282;14.282;2022-12-07T07:42:40;14.13;;;9.20;;
28756;SDS011;44294;48.282;14.282;2022-12-07T07:45:27;12.90;;;8.80;;
28756;SDS011;44294;48.282;14.282;2022-12-07T07:48:14;14.67;;;9.57;;
28756;SDS011;44294;48.282;14.282;2022-12-07T07:51:04;22.73;;;12.83;;
28756;SDS011;44294;48.282;14.282;2022-12-07T07:53:50;22.10;;;13.47;;
28756;SDS011;44294;48.282;14.282;2022-12-07T07:56:38;14.77;;;9.80;;
28756;SDS011;44294;48.282;14.282;2022-12-07T07:59:25;15.83;;;9.97;;
28756;SDS011;44294;48.282;14.282;2022-12-07T08:02:18;16.60;;;9.93;;
28756;SDS011;44294;48.282;14.282;2022-12-07T08:05:01;14.80;;;9.53;;
28756;SDS011;44294;48.282;14.282;2022-12-07T08:07:49;14.53;;;9.53;;
28756;SDS011;44294;48.282;14.282;2022-12-07T08:10:36;16.03;;;10.20;;
28756;SDS011;44294;48.282;14.282;2022-12-07T08:13:24;14.00;;;9.73;;
28756;SDS011;44294;48.282;14.282;2022-12-07T08:16:11;16.43;;;10.57;;
28756;SDS011;44294;48.282;14.282;2022-12-07T08:18:58;14.80;;;9.73;;
28756;SDS011;44294;48.282;14.282;2022-12-07T08:21:45;15.37;;;9.40;;
28756;SDS011;44294;48.282;14.282;2022-12-07T08:24:34;15.63;;;9.70;;
28756;SDS011;44294;48.282;14.282;2022-12-07T08:27:21;14.80;;;9.73;;
28756;SDS011;44294;48.282;14.282;2022-12-07T08:30:10;13.70;;;8.53;;
28756;SDS011;44294;48.282;14.282;2022-12-07T08:32:58;16.83;;;9.70;;
28756;SDS011;44294;48.282;14.282;2022-12-07T08:35:45;23.67;;;13.80;;
28756;SDS011;44294;48.282;14.282;2022-12-07T08:38:39;35.63;;;20.10;;
28756;SDS011;44294;48.282;14.282;2022-12-07T08:41:22;15.43;;;9.90;;
28756;SDS011;44294;48.282;14.282;2022-12-07T08:44:09;14.83;;;9.77;;
28756;SDS011;44294;48.282;14.282;2022-12-07T08:46:58;15.70;;;9.70;;
28756;SDS011;44294;48.282;14.282;2022-12-07T08:49:46;13.93;;;9.33;;
28756;SDS011;44294;48.282;14.282;2022-12-07T08:52:34;16.53;;;10.47;;
28756;SDS011;44294;48.282;14.282;2022-12-07T08:55:22;16.80;;;10.50;;
28756;SDS011;44294;48.282;14.282;2022-12-07T08:58:09;14.67;;;9.93;;
28756;SDS011;44294;48.282;14.282;2022-12-07T09:00:57;16.27;;;10.13;;
28756;SDS011;44294;48.282;14.282;2022-12-07T09:03:44;16.33;;;11.00;;
28756;SDS011;44294;48.282;14.282;2022-12-07T09:06:31;17.40;;;10.47;;
28756;SDS011;44294;48.282;14.282;2022-12-07T09:09:18;17.43;;;10.67;;
28756;SDS011;44294;48.282;14.282;2022-12-07T09:12:06;14.07;;;9.50;;
28756;SDS011;44294;48.282;14.282;2022-12-07T09:14:53;15.17;;;9.97;;
28756;SDS011;44294;48.282;14.282;2022-12-07T09:17:41;16.03;;;10.60;;
28756;SDS011;44294;48.282;14.282;2022-12-07T09:20:28;14.70;;;9.57;;
28756;SDS011;44294;48.282;14.282;2022-12-07T09:23:15;15.00;;;10.20;;
28756;SDS011;44294;48.282;14.282;2022-12-07T09:26:03;16.23;;;10.23;;
28756;SDS011;44294;48.282;14.282;2022-12-07T09:28:51;18.07;;;11.40;;
28756;SDS011;44294;48.282;14.282;2022-12-07T09:31:38;15.20;;;10.10;;
28756;SDS011;44294;48.282;14.282;2022-12-07T09:34:25;17.23;;;11.13;;
28756;SDS011;44294;48.282;14.282;2022-12-07T09:37:13;15.03;;;9.80;;
28756;SDS011;44294;48.282;14.282;2022-12-07T09:40:00;15.33;;;9.93;;
28756;SDS011;44294;48.282;14.282;2022-12-07T09:42:49;16.03;;;10.13;;
28756;SDS011;44294;48.282;14.282;2022-12-07T09:45:36;14.73;;;9.40;;
28756;SDS011;44294;48.282;14.282;2022-12-07T09:51:18;14.10;;;9.80;;
28756;SDS011;44294;48.282;14.282;2022-12-07T09:54:02;14.73;;;9.80;;
28756;SDS011;44294;48.282;14.282;2022-12-07T09:56:50;15.00;;;10.10;;
28756;SDS011;44294;48.282;14.282;2022-12-07T09:59:37;15.50;;;10.60;;
28756;SDS011;44294;48.282;14.282;2022-12-07T10:02:35;22.87;;;13.23;;
28756;SDS011;44294;48.282;14.282;2022-12-07T10:05:27;18.30;;;12.20;;
28756;SDS011;44294;48.282;14.282;2022-12-07T10:08:12;17.80;;;10.80;;
28756;SDS011;44294;48.282;14.282;2022-12-07T10:11:02;16.17;;;10.33;;
28756;SDS011;44294;48.282;14.282;2022-12-07T10:13:52;17.40;;;10.63;;
28756;SDS011;44294;48.282;14.282;2022-12-07T10:16:40;16.37;;;9.93;;
28756;SDS011;44294;48.282;14.282;2022-12-07T10:19:29;16.63;;;10.53;;
28756;SDS011;44294;48.282;14.282;2022-12-07T10:22:17;16.23;;;9.97;;
28756;SDS011;44294;48.282;14.282;2022-12-07T10:25:08;16.50;;;10.57;;
28756;SDS011;44294;48.282;14.282;2022-12-07T10:30:52;15.53;;;10.53;;
28756;SDS011;44294;48.282;14.282;2022-12-07T10:33:38;15.67;;;10.30;;
28756;SDS011;44294;48.282;14.282;2022-12-07T10:36:27;15.70;;;10.70;;
28756;SDS011;44294;48.282;14.282;2022-12-07T10:39:16;15.23;;;9.67;;
28756;SDS011;44294;48.282;14.282;2022-12-07T10:42:04;15.00;;;10.10;;
28756;SDS011;44294;48.282;14.282;2022-12-07T10:48:08;18.57;;;10.50;;
28756;SDS011;44294;48.282;14.282;2022-12-07T10:53:48;18.87;;;12.07;;
28756;SDS011;44294;48.282;14.282;2022-12-07T10:59:37;25.07;;;15.40;;
28756;SDS011;44294;48.282;14.282;2022-12-07T11:09:03;17.40;;;11.17;;
28756;SDS011;44294;48.282;14.282;2022-12-07T11:11:14;17.30;;;10.97;;
28756;SDS011;44294;48.282;14.282;2022-12-07T11:14:11;16.23;;;10.00;;
28756;SDS011;44294;48.282;14.282;2022-12-07T11:22:48;12.93;;;9.17;;
28756;SDS011;44294;48.282;14.282;2022-12-07T11:31:28;16.40;;;10.53;;
28756;SDS011;44294;48.282;14.282;2022-12-07T11:34:15;13.50;;;8.93;;
28756;SDS011;44294;48.282;14.282;2022-12-07T11:37:02;13.00;;;9.20;;
28756;SDS011;44294;48.282;14.282;2022-12-07T11:39:54;14.00;;;9.33;;
28756;SDS011;44294;48.282;14.282;2022-12-07T11:42:42;13.33;;;9.00;;
28756;SDS011;44294;48.282;14.282;2022-12-07T11:45:34;13.83;;;9.10;;
28756;SDS011;44294;48.282;14.282;2022-12-07T11:48:28;15.17;;;9.43;;
28756;SDS011;44294;48.282;14.282;2022-12-07T11:51:11;12.07;;;8.57;;
28756;SDS011;44294;48.282;14.282;2022-12-07T11:54:01;12.47;;;8.87;;
28756;SDS011;44294;48.282;14.282;2022-12-07T11:56:48;11.73;;;8.30;;
28756;SDS011;44294;48.282;14.282;2022-12-07T11:59:42;13.37;;;9.77;;
28756;SDS011;44294;48.282;14.282;2022-12-07T12:02:34;13.30;;;9.03;;
28756;SDS011;44294;48.282;14.282;2022-12-07T12:05:21;13.20;;;9.03;;
28756;SDS011;44294;48.282;14.282;2022-12-07T12:08:13;16.83;;;9.40;;
28756;SDS011;44294;48.282;14.282;2022-12-07T12:14:10;11.70;;;8.20;;
28756;SDS011;44294;48.282;14.282;2022-12-07T12:17:03;13.60;;;8.93;;
28756;SDS011;44294;48.282;14.282;2022-12-07T12:22:53;12.80;;;8.20;;
28756;SDS011;44294;48.282;14.282;2022-12-07T12:25:42;14.20;;;8.87;;
28756;SDS011;44294;48.282;14.282;2022-12-07T12:28:32;11.30;;;7.90;;
28756;SDS011;44294;48.282;14.282;2022-12-07T12:36:57;14.40;;;8.90;;
28756;SDS011;44294;48.282;14.282;2022-12-07T12:40:12;11.57;;;7.77;;
28756;SDS011;44294;48.282;14.282;2022-12-07T12:42:43;13.93;;;8.80;;
28756;SDS011;44294;48.282;14.282;2022-12-07T12:45:27;12.93;;;7.93;;
28756;SDS011;44294;48.282;14.282;2022-12-07T12:48:27;12.53;;;8.07;;
28756;SDS011;44294;48.282;14.282;2022-12-07T12:54:31;13.70;;;8.73;;
28756;SDS011;44294;48.282;14.282;2022-12-07T12:57:30;13.47;;;8.60;;
28756;SDS011;44294;48.282;14.282;2022-12-07T13:00:21;12.37;;;8.20;;
28756;SDS011;44294;48.282;14.282;2022-12-07T13:03:20;13.97;;;8.67;;
28756;SDS011;44294;48.282;14.282;2022-12-07T13:09:00;14.60;;;9.43;;
28756;SDS011;44294;48.282;14.282;2022-12-07T13:11:44;17.43;;;10.83;;
28756;SDS011;44294;48.282;14.282;2022-12-07T13:23:32;15.13;;;10.00;;
28756;SDS011;44294;48.282;14.282;2022-12-07T13:31:59;11.57;;;7.63;;
28756;SDS011;44294;48.282;14.282;2022-12-07T13:34:46;28.00;;;16.17;;
28756;SDS011;44294;48.282;14.282;2022-12-07T13:37:34;10.67;;;7.40;;
28756;SDS011;44294;48.282;14.282;2022-12-07T13:40:22;11.67;;;6.83;;
28756;SDS011;44294;48.282;14.282;2022-12-07T13:43:13;9.87;;;6.70;;
28756;SDS011;44294;48.282;14.282;2022-12-07T13:46:01;10.47;;;7.00;;
28756;SDS011;44294;48.282;14.282;2022-12-07T13:48:49;8.67;;;6.00;;
28756;SDS011;44294;48.282;14.282;2022-12-07T13:51:37;9.60;;;6.07;;
28756;SDS011;44294;48.282;14.282;2022-12-07T13:54:24;9.33;;;6.67;;
28756;SDS011;44294;48.282;14.282;2022-12-07T13:57:11;9.47;;;6.63;;
28756;SDS011;44294;48.282;14.282;2022-12-07T13:59:59;11.33;;;7.27;;
28756;SDS011;44294;48.282;14.282;2022-12-07T14:03:00;10.27;;;6.60;;
28756;SDS011;44294;48.282;14.282;2022-12-07T14:05:48;10.77;;;6.37;;
28756;SDS011;44294;48.282;14.282;2022-12-07T14:08:36;9.43;;;6.43;;
28756;SDS011;44294;48.282;14.282;2022-12-07T14:11:28;9.57;;;6.70;;
28756;SDS011;44294;48.282;14.282;2022-12-07T14:14:21;10.07;;;6.93;;
28756;SDS011;44294;48.282;14.282;2022-12-07T14:17:21;11.83;;;7.40;;
28756;SDS011;44294;48.282;14.282;2022-12-07T14:23:25;11.80;;;7.93;;
28756;SDS011;44294;48.282;14.282;2022-12-07T14:26:14;10.83;;;7.20;;
28756;SDS011;44294;48.282;14.282;2022-12-07T14:29:21;10.73;;;7.10;;
28756;SDS011;44294;48.282;14.282;2022-12-07T14:32:17;10.30;;;7.00;;
28756;SDS011;44294;48.282;14.282;2022-12-07T14:35:07;11.53;;;7.33;;
28756;SDS011;44294;48.282;14.282;2022-12-07T14:37:49;14.10;;;7.77;;
28756;SDS011;44294;48.282;14.282;2022-12-07T14:40:38;10.57;;;6.97;;
28756;SDS011;44294;48.282;14.282;2022-12-07T14:43:25;12.27;;;7.60;;
28756;SDS011;44294;48.282;14.282;2022-12-07T14:46:13;12.53;;;7.97;;
28756;SDS011;44294;48.282;14.282;2022-12-07T14:49:00;11.93;;;7.80;;
28756;SDS011;44294;48.282;14.282;2022-12-07T14:51:48;13.03;;;7.97;;
28756;SDS011;44294;48.282;14.282;2022-12-07T14:54:35;13.20;;;7.57;;
28756;SDS011;44294;48.282;14.282;2022-12-07T14:57:22;12.20;;;7.63;;
28756;SDS011;44294;48.282;14.282;2022-12-07T15:00:13;11.07;;;7.30;;
28756;SDS011;44294;48.282;14.282;2022-12-07T15:02:59;11.17;;;7.50;;
28756;SDS011;44294;48.282;14.282;2022-12-07T15:05:46;13.10;;;7.50;;
28756;SDS011;44294;48.282;14.282;2022-12-07T15:08:33;11.53;;;7.57;;
28756;SDS011;44294;48.282;14.282;2022-12-07T15:11:21;13.17;;;8.50;;
28756;SDS011;44294;48.282;14.282;2022-12-07T15:14:08;12.03;;;7.40;;
28756;SDS011;44294;48.282;14.282;2022-12-07T15:16:57;16.40;;;9.00;;
28756;SDS011;44294;48.282;14.282;2022-12-07T15:19:44;12.53;;;8.10;;
28756;SDS011;44294;48.282;14.282;2022-12-07T15:22:32;12.20;;;7.97;;
28756;SDS011;44294;48.282;14.282;2022-12-07T15:25:19;14.83;;;8.63;;
28756;SDS011;44294;48.282;14.282;2022-12-07T15:28:06;14.30;;;9.07;;
28756;SDS011;44294;48.282;14.282;2022-12-07T15:30:54;14.67;;;8.87;;
28756;SDS011;44294;48.282;14.282;2022-12-07T15:33:41;15.77;;;8.90;;
28756;SDS011;44294;48.282;14.282;2022-12-07T15:36:30;14.90;;;9.13;;
28756;SDS011;44294;48.282;14.282;2022-12-07T15:39:17;14.23;;;9.33;;
28756;SDS011;44294;48.282;14.282;2022-12-07T15:42:05;13.80;;;8.77;;
28756;SDS011;44294;48.282;14.282;2022-12-07T15:44:52;15.83;;;9.27;;
28756;SDS011;44294;48.282;14.282;2022-12-07T15:47:51;18.63;;;11.07;;
28756;SDS011;44294;48.282;14.282;2022-12-07T15:50:40;19.20;;;11.30;;
28756;SDS011;44294;48.282;14.282;2022-12-07T15:53:28;19.07;;;11.80;;
28756;SDS011;44294;48.282;14.282;2022-12-07T15:56:15;24.03;;;13.73;;
28756;SDS011;44294;48.282;14.282;2022-12-07T15:59:02;26.73;;;15.20;;
28756;SDS011;44294;48.282;14.282;2022-12-07T16:01:49;31.20;;;17.60;;
28756;SDS011;44294;48.282;14.282;2022-12-07T16:04:37;26.37;;;15.90;;
28756;SDS011;44294;48.282;14.282;2022-12-07T16:07:24;21.87;;;13.00;;
28756;SDS011;44294;48.282;14.282;2022-12-07T16:10:11;19.93;;;11.50;;
28756;SDS011;44294;48.282;14.282;2022-12-07T16:12:59;16.67;;;10.23;;
28756;SDS011;44294;48.282;14.282;2022-12-07T16:15:46;17.87;;;10.43;;
28756;SDS011;44294;48.282;14.282;2022-12-07T16:18:33;17.00;;;9.90;;
28756;SDS011;44294;48.282;14.282;2022-12-07T16:21:21;17.77;;;10.90;;
28756;SDS011;44294;48.282;14.282;2022-12-07T16:24:08;17.07;;;10.40;;
28756;SDS011;44294;48.282;14.282;2022-12-07T16:26:56;17.57;;;9.77;;
28756;SDS011;44294;48.282;14.282;2022-12-07T16:29:43;15.40;;;9.80;;
28756;SDS011;44294;48.282;14.282;2022-12-07T16:32:31;16.77;;;10.70;;
28756;SDS011;44294;48.282;14.282;2022-12-07T16:35:19;19.57;;;11.77;;
28756;SDS011;44294;48.282;14.282;2022-12-07T16:38:06;35.93;;;20.00;;
28756;SDS011;44294;48.282;14.282;2022-12-07T16:40:54;50.90;;;27.20;;
28756;SDS011;44294;48.282;14.282;2022-12-07T16:43:41;102.47;;;49.43;;
28756;SDS011;44294;48.282;14.282;2022-12-07T16:46:29;111.87;;;51.33;;
28756;SDS011;44294;48.282;14.282;2022-12-07T16:49:16;55.37;;;28.63;;
28756;SDS011;44294;48.282;14.282;2022-12-07T16:52:04;88.20;;;44.07;;
28756;SDS011;44294;48.282;14.282;2022-12-07T16:54:51;50.07;;;26.53;;
28756;SDS011;44294;48.282;14.282;2022-12-07T16:57:39;45.07;;;24.60;;
28756;SDS011;44294;48.282;14.282;2022-12-07T17:00:26;42.23;;;23.00;;
28756;SDS011;44294;48.282;14.282;2022-12-07T17:03:14;35.07;;;20.20;;
28756;SDS011;44294;48.282;14.282;2022-12-07T17:06:03;36.53;;;21.03;;
28756;SDS011;44294;48.282;14.282;2022-12-07T17:08:50;33.73;;;19.23;;
28756;SDS011;44294;48.282;14.282;2022-12-07T17:11:38;28.93;;;16.17;;
28756;SDS011;44294;48.282;14.282;2022-12-07T17:14:25;23.87;;;13.70;;
28756;SDS011;44294;48.282;14.282;2022-12-07T17:17:30;23.63;;;13.07;;
28756;SDS011;44294;48.282;14.282;2022-12-07T17:20:18;21.07;;;12.67;;
28756;SDS011;44294;48.282;14.282;2022-12-07T17:23:06;20.47;;;12.03;;
28756;SDS011;44294;48.282;14.282;2022-12-07T17:25:53;21.57;;;12.57;;
28756;SDS011;44294;48.282;14.282;2022-12-07T17:28:41;21.57;;;12.47;;
28756;SDS011;44294;48.282;14.282;2022-12-07T17:31:28;20.97;;;12.27;;
28756;SDS011;44294;48.282;14.282;2022-12-07T17:34:15;22.53;;;12.27;;
28756;SDS011;44294;48.282;14.282;2022-12-07T17:37:03;20.17;;;11.57;;
28756;SDS011;44294;48.282;14.282;2022-12-07T17:39:51;18.77;;;11.30;;
28756;SDS011;44294;48.282;14.282;2022-12-07T17:42:39;19.83;;;11.37;;
28756;SDS011;44294;48.282;14.282;2022-12-07T17:45:28;21.20;;;12.07;;
28756;SDS011;44294;48.282;14.282;2022-12-07T17:48:16;19.63;;;11.27;;
28756;SDS011;44294;48.282;14.282;2022-12-07T17:51:03;19.50;;;11.73;;
28756;SDS011;44294;48.282;14.282;2022-12-07T17:54:09;20.77;;;11.87;;